Time;durP1;ratioP1;P1;durP2;ratioP2;P2;SDS_P1;SDS_P2;PMS_P1;PMS_P2;Temp;Humidity;BMP_temperature;BMP_pressure;BME280_temperature;BME280_humidity;BME280_pressure;Samples;Min_cycle;Max_cycle;Signal;HPM_P1;HPM_P2
2023/03/29 00:00:26;;;;;;;7.72;3.70;;;5.50;99.90;;;;;;4988028;28;20053;-69
2023/03/29 00:02:55;;;;;;;6.68;3.55;;;5.50;99.90;;;;;;4986912;28;20046;-69
2023/03/29 00:05:24;;;;;;;6.32;3.90;;;5.50;99.90;;;;;;4978579;28;20054;-69
2023/03/29 00:07:53;;;;;;;7.43;3.28;;;5.50;99.90;;;;;;5003855;28;20119;-69
2023/03/29 00:10:21;;;;;;;6.57;3.20;;;5.50;99.90;;;;;;4999795;28;20509;-69
2023/03/29 00:12:47;;;;;;;4.93;3.30;;;5.50;99.90;;;;;;4964207;28;20049;-69
2023/03/29 00:15:13;;;;;;;8.15;3.70;;;5.50;99.90;;;;;;4977794;28;20388;-69
2023/03/29 00:17:39;;;;;;;6.32;3.10;;;5.40;99.90;;;;;;4954237;28;20049;-69
2023/03/29 00:20:08;;;;;;;6.25;3.50;;;5.40;99.90;;;;;;4955384;28;20069;-69
2023/03/29 00:22:36;;;;;;;8.27;3.90;;;5.40;99.90;;;;;;5005890;28;20077;-70
2023/03/29 00:25:03;;;;;;;6.20;3.10;;;5.40;99.90;;;;;;5009681;28;20046;-70
2023/03/29 00:27:29;;;;;;;8.18;3.40;;;5.40;99.90;;;;;;5022259;28;20098;-70
2023/03/29 00:29:55;;;;;;;8.85;3.58;;;5.40;99.90;;;;;;4985905;28;20053;-70
2023/03/29 00:32:21;;;;;;;8.88;3.58;;;5.40;99.90;;;;;;4989994;28;20045;-70
2023/03/29 00:34:49;;;;;;;4.07;3.05;;;5.30;99.90;;;;;;5014075;28;20049;-70
2023/03/29 00:37:17;;;;;;;6.00;3.30;;;5.40;99.90;;;;;;5018306;28;20240;-70
2023/03/29 00:39:44;;;;;;;8.40;3.40;;;5.40;99.90;;;;;;4993859;28;20050;-70
2023/03/29 00:42:15;;;;;;;4.85;2.95;;;5.40;99.90;;;;;;4992959;28;20049;-70
2023/03/29 00:45:08;;;;;;;4.65;3.20;;;5.40;99.90;;;;;;5009613;28;20045;-70
2023/03/29 00:47:37;;;;;;;5.43;3.30;;;5.40;99.90;;;;;;5022744;28;20045;-70
2023/03/29 00:50:14;;;;;;;9.52;4.07;;;5.40;99.90;;;;;;5028352;28;20041;-70
2023/03/29 00:52:43;;;;;;;6.00;3.28;;;5.40;99.90;;;;;;4974585;28;20182;-70
2023/03/29 00:55:15;;;;;;;7.57;3.38;;;5.40;99.90;;;;;;5006875;28;20073;-70
2023/03/29 00:57:45;;;;;;;6.72;3.28;;;5.40;99.90;;;;;;5005719;28;20041;-70
2023/03/29 01:00:16;;;;;;;7.70;3.50;;;5.40;99.90;;;;;;5001557;28;20056;-70
2023/03/29 01:02:49;;;;;;;9.35;3.42;;;5.40;99.90;;;;;;5010030;28;20045;-70
2023/03/29 01:05:28;;;;;;;4.53;3.00;;;5.40;99.90;;;;;;5011662;28;20506;-69
2023/03/29 01:07:59;;;;;;;4.97;3.00;;;5.30;99.90;;;;;;5017290;28;20399;-69
2023/03/29 01:10:57;;;;;;;6.28;3.25;;;5.30;99.90;;;;;;4999912;28;20045;-69
2023/03/29 01:13:32;;;;;;;5.95;3.33;;;5.40;99.90;;;;;;4983086;28;20494;-69
2023/03/29 01:15:59;;;;;;;8.05;2.90;;;5.40;99.90;;;;;;4988068;28;20988;-69
2023/03/29 01:18:25;;;;;;;6.38;3.72;;;5.40;99.90;;;;;;5002284;28;20090;-70
2023/03/29 01:21:18;;;;;;;6.07;3.58;;;5.40;99.90;;;;;;5006721;28;20941;-70
2023/03/29 01:23:53;;;;;;;8.20;3.53;;;5.40;99.90;;;;;;5013975;28;20510;-69
2023/03/29 01:26:30;;;;;;;5.15;3.47;;;5.40;99.90;;;;;;5024987;28;20049;-69
2023/03/29 01:29:15;;;;;;;5.70;3.30;;;5.40;99.90;;;;;;5002617;28;20080;-70
2023/03/29 01:31:45;;;;;;;4.35;3.30;;;5.40;99.90;;;;;;4987894;28;21169;-70
2023/03/29 01:34:21;;;;;;;7.38;3.80;;;5.40;99.90;;;;;;5007873;28;20059;-69
2023/03/29 01:36:59;;;;;;;9.23;3.22;;;5.40;99.90;;;;;;4986196;28;20045;-69
2023/03/29 01:39:25;;;;;;;6.03;3.47;;;5.40;99.90;;;;;;5020133;28;21436;-69
2023/03/29 01:42:02;;;;;;;5.30;3.50;;;5.40;99.90;;;;;;5004200;28;20458;-69
2023/03/29 01:44:50;;;;;;;5.82;3.13;;;5.40;99.90;;;;;;4990004;28;20046;-69
2023/03/29 01:47:26;;;;;;;6.53;3.40;;;5.40;99.90;;;;;;5008256;28;20061;-69
2023/03/29 01:49:55;;;;;;;5.07;3.33;;;5.40;99.90;;;;;;4991700;28;20037;-69
2023/03/29 01:52:33;;;;;;;6.00;3.58;;;5.40;99.90;;;;;;5005208;28;20052;-69
2023/03/29 01:55:11;;;;;;;6.28;3.45;;;5.40;99.90;;;;;;4985593;28;20131;-69
2023/03/29 01:57:40;;;;;;;4.40;3.08;;;5.40;99.90;;;;;;5007630;28;20045;-69
2023/03/29 02:00:09;;;;;;;10.32;3.20;;;5.40;99.90;;;;;;4993438;28;20492;-69
2023/03/29 02:02:38;;;;;;;8.30;3.50;;;5.30;99.90;;;;;;5008009;28;20049;-70
2023/03/29 02:05:08;;;;;;;8.93;3.45;;;5.40;99.90;;;;;;5021635;28;20451;-69
2023/03/29 02:07:37;;;;;;;6.53;3.97;;;5.40;99.90;;;;;;4991528;28;20048;-69
2023/03/29 02:10:05;;;;;;;5.53;3.47;;;5.30;99.90;;;;;;5023895;28;20046;-69
2023/03/29 02:12:31;;;;;;;7.32;4.05;;;5.40;99.90;;;;;;4985699;28;20045;-69
2023/03/29 02:14:58;;;;;;;5.82;3.78;;;5.30;99.90;;;;;;5002154;28;20117;-69
2023/03/29 02:17:26;;;;;;;5.05;3.75;;;5.30;99.90;;;;;;4988422;28;20052;-69
2023/03/29 02:20:16;;;;;;;5.78;3.80;;;5.40;99.90;;;;;;5002107;28;20103;-70
2023/03/29 02:23:17;;;;;;;9.75;4.90;;;5.30;99.90;;;;;;5005688;28;20161;-70
2023/03/29 02:25:44;;;;;;;10.30;4.00;;;5.30;99.90;;;;;;5004812;28;20056;-69
2023/03/29 02:28:10;;;;;;;6.07;4.22;;;5.30;99.90;;;;;;5001760;28;20053;-70
2023/03/29 02:31:03;;;;;;;8.70;4.85;;;5.30;99.90;;;;;;5002409;28;20060;-69
2023/03/29 02:33:52;;;;;;;7.25;4.68;;;5.30;99.90;;;;;;4990605;28;20336;-70
2023/03/29 02:36:40;;;;;;;7.88;4.78;;;5.30;99.90;;;;;;4969196;28;20056;-69
2023/03/29 02:39:08;;;;;;;10.20;4.90;;;5.30;99.90;;;;;;5005103;28;20053;-69
2023/03/29 02:41:36;;;;;;;8.95;4.85;;;5.30;99.90;;;;;;5005429;28;20044;-69
2023/03/29 02:44:06;;;;;;;6.57;4.50;;;5.30;99.90;;;;;;5008354;28;20547;-69
2023/03/29 02:46:33;;;;;;;7.57;4.57;;;5.30;99.90;;;;;;4989943;28;20124;-69
2023/03/29 02:48:59;;;;;;;7.85;4.22;;;5.40;99.90;;;;;;5007462;28;20052;-69
2023/03/29 02:51:32;;;;;;;5.50;4.53;;;5.40;99.90;;;;;;5004455;28;20072;-70
2023/03/29 02:54:30;;;;;;;7.25;4.72;;;5.30;99.90;;;;;;5003363;28;20120;-69
2023/03/29 02:56:59;;;;;;;8.25;5.00;;;5.30;99.90;;;;;;4998437;28;20084;-69
2023/03/29 02:59:25;;;;;;;10.00;4.82;;;5.30;99.90;;;;;;4987046;28;20089;-69
2023/03/29 03:01:52;;;;;;;8.85;5.00;;;5.30;99.90;;;;;;4997981;28;20116;-69
2023/03/29 03:04:19;;;;;;;10.77;4.78;;;5.30;99.90;;;;;;5010264;28;20056;-69
2023/03/29 03:06:46;;;;;;;7.63;4.68;;;5.40;99.90;;;;;;4992641;28;20145;-69
2023/03/29 03:09:12;;;;;;;8.13;4.85;;;5.40;99.90;;;;;;4996782;28;20038;-69
2023/03/29 03:11:38;;;;;;;8.27;5.13;;;5.40;99.90;;;;;;5003273;28;20054;-69
2023/03/29 03:14:06;;;;;;;11.98;4.80;;;5.40;99.90;;;;;;5009199;28;20049;-69
2023/03/29 03:16:32;;;;;;;10.70;5.20;;;5.40;99.90;;;;;;4994072;28;20948;-69
2023/03/29 03:18:58;;;;;;;7.88;5.22;;;5.40;99.90;;;;;;5011116;28;20037;-69
2023/03/29 03:21:26;;;;;;;11.00;4.80;;;5.40;99.90;;;;;;5007903;28;20104;-69
2023/03/29 03:23:54;;;;;;;9.40;5.50;;;5.40;99.90;;;;;;5010367;28;20508;-69
2023/03/29 03:26:21;;;;;;;7.97;5.07;;;5.40;99.90;;;;;;4988909;28;20050;-69
2023/03/29 03:28:47;;;;;;;8.88;5.55;;;5.40;99.90;;;;;;4989354;28;20073;-69
2023/03/29 03:31:13;;;;;;;7.38;5.30;;;5.40;99.90;;;;;;4982785;28;20095;-69
2023/03/29 03:33:40;;;;;;;9.90;5.10;;;5.40;99.90;;;;;;4969895;28;20057;-69
2023/03/29 03:36:10;;;;;;;11.07;5.38;;;5.40;99.90;;;;;;4988987;28;20061;-69
2023/03/29 03:38:37;;;;;;;8.82;5.57;;;5.40;99.90;;;;;;4986525;28;20046;-70
2023/03/29 03:41:03;;;;;;;9.63;5.80;;;5.40;99.90;;;;;;4991499;28;20081;-70
2023/03/29 03:43:30;;;;;;;11.23;5.80;;;5.40;99.90;;;;;;4966501;28;20392;-69
2023/03/29 03:45:56;;;;;;;8.88;5.28;;;5.40;99.90;;;;;;5005896;28;20136;-69
2023/03/29 03:48:22;;;;;;;10.60;5.47;;;5.40;99.90;;;;;;4991983;28;20151;-69
2023/03/29 03:50:57;;;;;;;8.98;5.10;;;5.40;99.90;;;;;;4990450;28;20057;-69
2023/03/29 03:53:24;;;;;;;11.50;5.35;;;5.40;99.90;;;;;;5006075;28;20050;-69
2023/03/29 03:55:52;;;;;;;13.60;5.28;;;5.40;99.90;;;;;;4978339;28;20508;-70
2023/03/29 03:58:18;;;;;;;8.18;4.70;;;5.40;99.90;;;;;;5010213;28;20072;-70
2023/03/29 04:00:47;;;;;;;10.02;5.43;;;5.40;99.90;;;;;;4990611;28;20053;-70
2023/03/29 04:03:13;;;;;;;7.80;4.95;;;5.40;99.90;;;;;;4986929;28;20408;-70
2023/03/29 04:05:43;;;;;;;10.27;5.30;;;5.40;99.90;;;;;;5004460;28;20054;-70
2023/03/29 04:08:11;;;;;;;9.65;5.63;;;5.40;99.90;;;;;;5006780;28;20495;-70
2023/03/29 04:10:37;;;;;;;11.70;5.68;;;5.40;99.90;;;;;;5006570;28;20091;-70
2023/03/29 04:13:04;;;;;;;8.10;5.53;;;5.40;99.90;;;;;;5005970;28;20515;-70
2023/03/29 04:15:31;;;;;;;9.13;5.53;;;5.50;99.90;;;;;;4985599;28;20038;-70
2023/03/29 04:17:58;;;;;;;11.27;5.80;;;5.40;99.90;;;;;;5005895;28;20179;-70
2023/03/29 04:20:24;;;;;;;9.40;5.63;;;5.50;99.90;;;;;;5001470;28;20041;-70
2023/03/29 04:22:51;;;;;;;7.68;5.60;;;5.50;99.90;;;;;;4985351;28;20547;-70
2023/03/29 04:25:17;;;;;;;9.15;5.95;;;5.50;99.90;;;;;;5006267;28;20136;-70
2023/03/29 04:27:44;;;;;;;10.63;5.97;;;5.50;99.90;;;;;;4996705;28;20051;-70
2023/03/29 04:30:11;;;;;;;11.50;6.22;;;5.60;99.90;;;;;;5009555;28;20045;-70
2023/03/29 04:32:37;;;;;;;7.85;5.53;;;5.50;99.90;;;;;;4980670;28;20059;-70
2023/03/29 04:35:04;;;;;;;10.23;6.40;;;5.50;99.90;;;;;;5009717;28;20053;-70
2023/03/29 04:37:31;;;;;;;8.18;5.43;;;5.50;99.90;;;;;;5007526;28;20492;-70
2023/03/29 04:39:59;;;;;;;10.38;6.10;;;5.50;99.90;;;;;;5011765;28;20123;-70
2023/03/29 04:42:26;;;;;;;7.88;5.63;;;5.50;99.90;;;;;;5008912;28;20048;-70
2023/03/29 04:44:52;;;;;;;9.27;6.00;;;5.50;99.90;;;;;;5011243;28;20040;-69
2023/03/29 04:47:18;;;;;;;11.55;6.25;;;5.50;99.90;;;;;;4990640;28;20060;-69
2023/03/29 04:49:44;;;;;;;11.50;5.82;;;5.50;99.90;;;;;;4966387;28;20042;-69
2023/03/29 04:52:10;;;;;;;10.55;6.40;;;5.50;99.90;;;;;;4980225;28;20128;-69
2023/03/29 04:54:36;;;;;;;9.93;6.35;;;5.50;99.90;;;;;;4995526;28;20583;-70
2023/03/29 04:57:07;;;;;;;10.13;6.53;;;5.50;99.90;;;;;;5006221;28;20068;-70
2023/03/29 04:59:33;;;;;;;8.85;5.88;;;5.60;99.90;;;;;;5011130;28;21058;-70
2023/03/29 05:02:01;;;;;;;9.68;6.25;;;5.50;99.90;;;;;;5009693;28;20053;-70
2023/03/29 05:04:28;;;;;;;9.95;6.00;;;5.60;99.90;;;;;;5005074;28;20119;-70
2023/03/29 05:06:54;;;;;;;12.25;6.70;;;5.50;99.90;;;;;;5010472;28;20208;-70
2023/03/29 05:09:21;;;;;;;14.80;6.90;;;5.60;99.90;;;;;;5005391;28;20124;-70
2023/03/29 05:11:47;;;;;;;12.70;6.72;;;5.60;99.90;;;;;;5003562;28;20648;-70
2023/03/29 05:14:13;;;;;;;8.63;6.45;;;5.60;99.90;;;;;;5007459;28;20049;-70
2023/03/29 05:16:39;;;;;;;12.75;7.22;;;5.60;99.90;;;;;;4983705;28;20384;-70
2023/03/29 05:19:05;;;;;;;16.92;7.05;;;5.60;99.90;;;;;;5001028;28;20057;-70
2023/03/29 05:21:33;;;;;;;15.02;7.18;;;5.60;99.90;;;;;;5010890;28;20061;-70
2023/03/29 05:23:58;;;;;;;10.30;6.47;;;5.60;99.90;;;;;;4996924;28;20072;-70
2023/03/29 05:26:25;;;;;;;11.48;6.93;;;5.60;99.90;;;;;;4971962;28;20038;-70
2023/03/29 05:28:51;;;;;;;16.70;7.13;;;5.60;99.90;;;;;;4983883;28;20128;-70
2023/03/29 05:31:17;;;;;;;9.32;6.75;;;5.70;99.90;;;;;;4958868;28;20485;-70
2023/03/29 05:33:43;;;;;;;10.43;6.65;;;5.70;99.90;;;;;;4985233;28;20487;-70
2023/03/29 05:36:14;;;;;;;11.88;6.97;;;5.70;99.90;;;;;;4985694;28;20056;-70
2023/03/29 05:38:41;;;;;;;9.70;6.95;;;5.70;99.90;;;;;;5018541;28;20134;-70
2023/03/29 05:41:07;;;;;;;11.57;6.93;;;5.70;99.90;;;;;;4995816;28;20067;-70
2023/03/29 05:43:33;;;;;;;11.48;7.03;;;5.60;99.90;;;;;;5001779;28;20172;-70
2023/03/29 05:45:59;;;;;;;10.73;7.30;;;5.70;99.90;;;;;;4984261;28;20628;-70
2023/03/29 05:48:26;;;;;;;12.50;7.20;;;5.70;99.90;;;;;;5005799;28;20048;-70
2023/03/29 05:50:53;;;;;;;11.07;7.38;;;5.70;99.90;;;;;;4990852;28;20037;-70
2023/03/29 05:53:20;;;;;;;14.52;7.82;;;5.70;99.90;;;;;;5005911;28;20077;-70
2023/03/29 05:55:46;;;;;;;12.02;7.65;;;5.80;99.90;;;;;;5011620;28;20063;-70
2023/03/29 05:58:14;;;;;;;12.52;7.55;;;5.70;99.90;;;;;;4972464;28;20045;-70
2023/03/29 06:00:41;;;;;;;14.70;7.80;;;5.80;99.90;;;;;;5022780;28;20046;-70
2023/03/29 06:03:12;;;;;;;13.10;7.28;;;5.80;99.90;;;;;;5005747;28;20037;-70
2023/03/29 06:05:39;;;;;;;12.73;7.00;;;5.80;99.90;;;;;;5018450;28;20156;-70
2023/03/29 06:08:05;;;;;;;15.30;7.53;;;5.80;99.90;;;;;;5013961;28;20052;-70
2023/03/29 06:10:32;;;;;;;11.73;7.50;;;5.80;99.90;;;;;;4987898;28;20052;-70
2023/03/29 06:12:58;;;;;;;11.25;7.88;;;5.80;99.90;;;;;;4988153;28;20077;-69
2023/03/29 06:15:24;;;;;;;12.73;7.93;;;5.80;99.90;;;;;;5008439;28;20516;-66
2023/03/29 06:17:50;;;;;;;12.68;8.02;;;5.80;99.90;;;;;;5009155;28;20037;-66
2023/03/29 06:20:16;;;;;;;10.07;7.68;;;5.80;99.90;;;;;;5010779;28;20037;-66
2023/03/29 06:22:42;;;;;;;11.55;8.27;;;5.90;99.90;;;;;;4991715;28;20053;-66
2023/03/29 06:25:13;;;;;;;13.80;8.77;;;5.90;99.90;;;;;;5016642;28;20132;-67
2023/03/29 06:27:38;;;;;;;13.98;8.48;;;5.90;99.90;;;;;;5025591;28;20357;-67
2023/03/29 06:30:05;;;;;;;14.45;8.45;;;5.90;99.90;;;;;;5017938;28;20044;-67
2023/03/29 06:32:33;;;;;;;18.00;9.13;;;5.90;99.90;;;;;;5019284;28;20049;-67
2023/03/29 06:34:59;;;;;;;13.93;9.00;;;6.00;99.90;;;;;;5013423;28;20041;-67
2023/03/29 06:37:25;;;;;;;13.68;9.45;;;6.00;99.90;;;;;;5030590;28;20106;-67
2023/03/29 06:39:52;;;;;;;13.82;9.23;;;5.90;99.90;;;;;;5001081;28;20037;-67
2023/03/29 06:42:22;;;;;;;15.65;9.73;;;6.00;99.90;;;;;;4991379;28;20051;-67
2023/03/29 06:44:51;;;;;;;17.58;9.10;;;6.00;99.90;;;;;;4986894;28;20048;-67
2023/03/29 06:47:17;;;;;;;14.48;9.30;;;6.00;99.90;;;;;;5004724;28;20041;-67
2023/03/29 06:49:43;;;;;;;15.23;9.40;;;6.10;99.90;;;;;;5006805;28;20052;-67
2023/03/29 06:52:09;;;;;;;17.70;9.52;;;6.10;99.90;;;;;;5004241;28;20068;-67
2023/03/29 06:54:35;;;;;;;13.75;9.55;;;6.10;99.90;;;;;;5011433;28;20080;-67
2023/03/29 06:57:04;;;;;;;15.95;9.27;;;6.20;99.90;;;;;;4999125;28;20084;-67
2023/03/29 06:59:30;;;;;;;21.45;10.50;;;6.10;99.90;;;;;;5030418;28;20364;-67
2023/03/29 07:01:56;;;;;;;15.35;9.52;;;6.20;99.90;;;;;;5026276;28;20049;-67
2023/03/29 07:04:23;;;;;;;12.55;8.93;;;6.20;99.90;;;;;;4979768;28;20483;-67
2023/03/29 07:07:00;;;;;;;20.83;10.13;;;6.30;99.90;;;;;;4993089;28;20064;-67
2023/03/29 07:09:28;;;;;;;17.38;10.18;;;6.30;99.90;;;;;;4995052;28;21768;-67
2023/03/29 07:11:55;;;;;;;15.50;10.05;;;6.20;99.90;;;;;;5006490;28;20116;-67
2023/03/29 07:14:22;;;;;;;14.02;10.05;;;6.40;99.90;;;;;;4995107;28;20061;-67
2023/03/29 07:16:48;;;;;;;13.20;9.40;;;6.40;99.90;;;;;;5006396;28;20045;-67
2023/03/29 07:19:14;;;;;;;16.73;9.57;;;6.50;99.90;;;;;;4990247;28;20595;-67
2023/03/29 07:21:40;;;;;;;19.42;10.02;;;6.50;99.90;;;;;;4990247;28;20060;-67
2023/03/29 07:24:07;;;;;;;18.33;9.63;;;6.60;99.90;;;;;;5012859;28;20056;-67
2023/03/29 07:26:33;;;;;;;16.65;9.35;;;6.70;99.90;;;;;;5012343;28;20059;-67
2023/03/29 07:28:59;;;;;;;18.95;9.55;;;6.70;99.90;;;;;;5014115;28;20453;-67
2023/03/29 07:31:28;;;;;;;19.73;9.48;;;6.70;99.90;;;;;;5009230;28;20037;-67
2023/03/29 07:33:54;;;;;;;16.08;10.13;;;6.70;99.90;;;;;;4992449;28;20053;-67
2023/03/29 07:36:20;;;;;;;32.25;10.70;;;6.70;99.90;;;;;;5011841;28;20041;-67
2023/03/29 07:38:47;;;;;;;33.17;10.30;;;6.80;99.90;;;;;;5010762;28;20084;-67
2023/03/29 07:41:13;;;;;;;41.75;10.65;;;6.80;99.90;;;;;;5006134;28;20201;-67
2023/03/29 07:43:39;;;;;;;13.02;8.70;;;6.80;99.90;;;;;;5012125;28;20128;-67
2023/03/29 07:46:05;;;;;;;11.80;8.65;;;6.80;99.90;;;;;;4981537;28;20064;-67
2023/03/29 07:48:32;;;;;;;15.40;8.55;;;6.80;99.90;;;;;;5011545;28;20491;-67
2023/03/29 07:50:58;;;;;;;25.75;9.70;;;6.80;99.90;;;;;;5001838;28;20033;-67
2023/03/29 07:53:24;;;;;;;38.60;10.73;;;6.80;99.90;;;;;;5009796;28;20041;-67
2023/03/29 07:55:51;;;;;;;14.77;8.93;;;6.90;99.90;;;;;;5006947;28;20041;-66
2023/03/29 07:58:17;;;;;;;16.23;8.65;;;6.90;99.90;;;;;;5009521;28;20048;-66
2023/03/29 08:00:42;;;;;;;13.70;8.85;;;6.90;99.90;;;;;;4989242;28;20971;-67
2023/03/29 08:03:12;;;;;;;17.20;9.90;;;6.90;99.90;;;;;;5019094;28;20056;-66
2023/03/29 08:05:38;;;;;;;13.25;9.23;;;7.00;99.90;;;;;;5005319;28;20049;-66
2023/03/29 08:08:04;;;;;;;13.40;8.70;;;7.00;99.90;;;;;;5007080;28;20048;-66
2023/03/29 08:10:30;;;;;;;15.52;9.40;;;7.10;99.90;;;;;;4988596;28;20492;-66
2023/03/29 08:12:56;;;;;;;15.30;9.68;;;7.20;99.90;;;;;;5004035;28;20085;-66
2023/03/29 08:15:22;;;;;;;15.10;9.43;;;7.20;99.90;;;;;;5006325;28;20049;-66
2023/03/29 08:17:48;;;;;;;12.52;9.15;;;7.20;99.90;;;;;;5008091;28;20505;-66
2023/03/29 08:20:18;;;;;;;15.82;8.82;;;7.20;99.90;;;;;;4973024;28;20550;-66
2023/03/29 08:22:44;;;;;;;14.98;8.73;;;7.30;99.90;;;;;;5002670;28;20058;-66
2023/03/29 08:25:10;;;;;;;17.13;9.48;;;7.30;99.90;;;;;;4985074;28;20508;-66
2023/03/29 08:27:36;;;;;;;14.52;9.18;;;7.40;99.90;;;;;;4985858;28;20073;-66
2023/03/29 08:30:05;;;;;;;14.40;8.93;;;7.40;99.90;;;;;;5004204;28;22379;-66
2023/03/29 08:32:31;;;;;;;14.13;8.52;;;7.50;99.90;;;;;;5000086;28;20499;-66
2023/03/29 08:34:57;;;;;;;13.25;8.52;;;7.60;99.90;;;;;;5001488;28;20053;-66
2023/03/29 08:37:24;;;;;;;14.45;8.40;;;7.70;99.90;;;;;;4983550;28;20038;-66
2023/03/29 08:39:50;;;;;;;12.77;8.05;;;7.70;99.90;;;;;;4985654;28;20128;-66
2023/03/29 08:42:31;;;;;;;13.65;8.27;;;7.70;99.90;;;;;;4984367;28;20065;-66
2023/03/29 08:45:08;;;;;;;13.70;8.10;;;7.80;99.90;;;;;;5001565;28;20128;-66
2023/03/29 08:48:01;;;;;;;12.15;7.97;;;7.90;99.90;;;;;;5006012;28;20053;-66
2023/03/29 08:50:35;;;;;;;14.10;7.97;;;8.00;99.90;;;;;;5018115;28;20041;-66
2023/03/29 08:53:06;;;;;;;12.93;8.10;;;8.10;99.90;;;;;;4997582;28;20057;-66
2023/03/29 08:55:40;;;;;;;14.90;8.50;;;8.20;99.90;;;;;;4999178;28;21066;-66
2023/03/29 08:58:15;;;;;;;15.68;8.63;;;8.20;99.90;;;;;;5000675;28;20042;-66
2023/03/29 09:01:02;;;;;;;15.25;8.65;;;8.30;99.90;;;;;;4985413;28;20053;-66
2023/03/29 09:03:33;;;;;;;14.25;8.48;;;8.40;99.90;;;;;;4997683;28;20068;-66
2023/03/29 09:06:05;;;;;;;12.05;8.77;;;8.40;99.90;;;;;;4995622;28;20057;-66
2023/03/29 09:08:33;;;;;;;17.33;9.25;;;8.50;99.90;;;;;;4999291;28;20049;-66
2023/03/29 09:11:32;;;;;;;15.23;8.73;;;8.60;99.90;;;;;;5000291;28;20045;-66
2023/03/29 09:14:47;;;;;;;13.20;8.75;;;8.70;99.90;;;;;;4963499;28;20064;-66
2023/03/29 09:17:22;;;;;;;14.10;8.75;;;8.70;99.90;;;;;;4961710;28;20099;-66
2023/03/29 09:20:17;;;;;;;17.83;9.02;;;8.80;99.90;;;;;;4949952;28;20130;-66
2023/03/29 09:23:19;;;;;;;12.60;8.35;;;9.00;99.90;;;;;;4953788;28;20124;-66
2023/03/29 09:26:03;;;;;;;17.27;9.32;;;9.00;99.90;;;;;;4999653;28;20465;-66
2023/03/29 09:29:00;;;;;;;17.52;9.20;;;9.10;99.90;;;;;;5020312;28;20504;-67
2023/03/29 09:31:37;;;;;;;16.77;9.35;;;9.10;99.90;;;;;;4974220;28;20073;-66
2023/03/29 09:34:16;;;;;;;22.73;10.10;;;9.20;99.90;;;;;;5020123;28;20052;-66
2023/03/29 09:37:02;;;;;;;18.27;9.63;;;9.20;99.90;;;;;;4994824;28;20552;-66
2023/03/29 09:39:28;;;;;;;16.17;9.38;;;9.40;99.90;;;;;;5002353;28;20037;-66
2023/03/29 09:42:03;;;;;;;22.13;10.30;;;9.50;99.90;;;;;;4983042;28;20430;-67
2023/03/29 09:44:53;;;;;;;21.08;9.73;;;9.60;99.90;;;;;;5000874;28;20049;-66
2023/03/29 09:47:51;;;;;;;24.35;10.85;;;9.60;99.90;;;;;;4999584;28;20061;-66
2023/03/29 09:50:34;;;;;;;22.17;10.45;;;9.70;99.90;;;;;;5001038;28;20050;-66
2023/03/29 09:53:00;;;;;;;;;;;9.70;99.90;;;;;;4987610;28;20081;-66
2023/03/29 09:55:28;;;;;;;26.83;11.07;;;9.80;99.90;;;;;;4999432;28;20380;-66
2023/03/29 09:58:00;;;;;;;20.45;11.43;;;9.80;99.90;;;;;;5002710;28;20034;-66
2023/03/29 10:00:26;;;;;;;19.27;10.32;;;9.80;99.90;;;;;;5017678;28;20685;-66
2023/03/29 10:02:53;;;;;;;23.20;10.98;;;9.80;99.90;;;;;;4998466;28;20084;-66
2023/03/29 10:05:19;;;;;;;21.02;11.27;;;9.80;99.90;;;;;;5017555;28;20096;-66
2023/03/29 10:07:49;;;;;;;17.20;10.45;;;9.90;99.90;;;;;;5001757;28;20188;-66
2023/03/29 10:10:32;;;;;;;23.83;10.68;;;9.90;99.90;;;;;;5015720;28;20049;-66
2023/03/29 10:13:05;;;;;;;18.20;10.93;;;9.90;99.90;;;;;;4995582;28;20049;-66
2023/03/29 10:15:31;;;;;;;15.27;10.30;;;10.00;99.90;;;;;;4999034;28;20057;-66
2023/03/29 10:18:05;;;;;;;19.70;10.93;;;10.00;99.90;;;;;;5002231;28;20041;-66
2023/03/29 10:20:35;;;;;;;22.10;10.93;;;10.00;99.90;;;;;;5002604;28;20528;-66
2023/03/29 10:23:01;;;;;;;20.40;10.48;;;10.00;99.90;;;;;;5000361;28;20054;-67
2023/03/29 10:25:30;;;;;;;19.23;10.68;;;10.00;99.90;;;;;;4995883;28;20502;-67
2023/03/29 10:28:06;;;;;;;16.48;10.40;;;10.00;99.90;;;;;;4999194;28;20088;-67
2023/03/29 10:30:36;;;;;;;22.50;10.93;;;10.00;99.90;;;;;;4999369;28;21657;-66
2023/03/29 10:33:02;;;;;;;15.88;10.10;;;10.00;99.90;;;;;;4999874;28;20128;-67
2023/03/29 10:35:32;;;;;;;17.23;11.20;;;10.00;99.90;;;;;;4979656;28;20050;-67
2023/03/29 10:38:03;;;;;;;24.75;11.65;;;10.10;99.90;;;;;;4982359;28;20128;-66
2023/03/29 10:40:34;;;;;;;20.38;11.23;;;10.10;99.90;;;;;;4999670;28;20131;-65
2023/03/29 10:43:11;;;;;;;22.58;11.30;;;10.20;99.90;;;;;;4977283;28;20127;-65
2023/03/29 10:45:38;;;;;;;20.17;11.88;;;10.30;99.90;;;;;;4997181;28;20046;-66
2023/03/29 10:48:06;;;;;;;19.67;11.82;;;10.40;99.90;;;;;;4963292;28;20095;-65
2023/03/29 10:50:38;;;;;;;18.67;12.10;;;10.50;99.90;;;;;;5000667;28;21183;-65
2023/03/29 10:53:29;;;;;;;23.43;12.60;;;10.50;99.90;;;;;;4994754;28;20064;-66
2023/03/29 10:56:06;;;;;;;18.73;12.40;;;10.60;99.90;;;;;;4999893;28;20049;-66
2023/03/29 10:58:50;;;;;;;20.48;12.52;;;10.70;99.90;;;;;;4998556;28;20038;-66
2023/03/29 11:01:36;;;;;;;22.05;12.48;;;10.70;99.90;;;;;;5017551;28;20112;-66
2023/03/29 11:04:33;;;;;;;23.27;12.98;;;10.80;99.90;;;;;;4978742;28;20054;-66
2023/03/29 11:07:02;;;;;;;22.35;12.88;;;11.00;99.90;;;;;;5003954;28;20148;-67
2023/03/29 11:09:44;;;;;;;23.83;12.70;;;11.10;99.90;;;;;;5001194;28;20124;-67
2023/03/29 11:12:28;;;;;;;23.90;13.57;;;11.30;99.90;;;;;;5001968;28;20058;-67
2023/03/29 11:15:00;;;;;;;21.48;12.80;;;11.40;99.90;;;;;;4999774;28;20461;-67
2023/03/29 11:17:53;;;;;;;23.07;13.67;;;11.60;99.90;;;;;;5014807;28;20081;-71
2023/03/29 11:20:58;;;;;;;21.10;13.30;;;11.80;99.90;;;;;;4986111;28;21409;-71
2023/03/29 11:23:51;;;;;;;19.77;13.30;;;12.10;99.90;;;;;;4948206;28;20108;-71
2023/03/29 11:26:35;;;;;;;20.80;12.75;;;12.30;99.90;;;;;;5000477;28;20045;-71
2023/03/29 11:29:21;;;;;;;20.35;13.57;;;12.50;99.90;;;;;;4986219;28;20042;-71
2023/03/29 11:31:50;;;;;;;22.85;13.27;;;12.60;99.90;;;;;;5003354;28;20049;-71
2023/03/29 11:35:16;;;;;;;23.23;13.15;;;12.70;99.90;;;;;;4998966;28;20056;-71
2023/03/29 11:37:57;;;;;;;21.15;13.13;;;12.80;99.90;;;;;;4906965;29;20040;-71
2023/03/29 11:40:53;;;;;;;22.83;12.77;;;12.80;99.90;;;;;;4939350;28;20562;-71
2023/03/29 11:43:24;;;;;;;19.83;12.65;;;12.80;99.90;;;;;;4956717;28;20054;-71
2023/03/29 11:46:13;;;;;;;19.48;12.75;;;12.80;99.90;;;;;;4983627;28;20054;-71
2023/03/29 11:49:10;;;;;;;19.55;12.98;;;12.70;99.90;;;;;;4990222;28;20515;-71
2023/03/29 11:51:49;;;;;;;19.15;12.25;;;12.70;99.90;;;;;;4998855;28;20060;-71
2023/03/29 11:54:27;;;;;;;19.60;12.27;;;12.70;99.90;;;;;;5017509;28;20046;-71
2023/03/29 11:56:58;;;;;;;19.52;13.00;;;12.60;99.90;;;;;;4999767;28;20095;-71
2023/03/29 11:59:48;;;;;;;23.58;13.05;;;12.70;99.90;;;;;;5003152;28;20052;-71
2023/03/29 12:02:38;;;;;;;18.00;12.90;;;12.70;99.90;;;;;;4998033;28;20042;-71
2023/03/29 12:05:17;;;;;;;22.50;13.15;;;12.70;99.90;;;;;;4977835;28;20120;-71
2023/03/29 12:07:55;;;;;;;16.38;12.00;;;12.70;99.90;;;;;;4964379;28;20049;-71
2023/03/29 12:10:25;;;;;;;18.42;12.65;;;12.80;99.90;;;;;;5002594;28;20515;-71
2023/03/29 12:13:05;;;;;;;18.73;12.13;;;12.80;99.90;;;;;;4984990;28;20063;-71
2023/03/29 12:15:40;;;;;;;19.92;11.95;;;12.90;99.90;;;;;;5001000;28;20054;-71
2023/03/29 12:18:44;;;;;;;18.35;12.23;;;13.00;99.90;;;;;;5003679;28;20368;-71
2023/03/29 12:21:21;;;;;;;16.17;12.30;;;13.10;99.90;;;;;;4987512;28;20061;-71
2023/03/29 12:23:48;;;;;;;19.65;12.38;;;13.20;99.90;;;;;;5021765;28;20041;-71
2023/03/29 12:26:44;;;;;;;15.60;11.63;;;13.40;99.90;;;;;;4986647;28;20041;-71
2023/03/29 12:29:44;;;;;;;18.10;11.52;;;13.60;99.90;;;;;;5016002;28;20080;-71
2023/03/29 12:32:38;;;;;;;16.55;11.68;;;13.70;99.90;;;;;;4989329;28;20125;-71
2023/03/29 12:35:33;;;;;;;17.95;11.25;;;13.80;99.90;;;;;;5003271;28;20048;-71
2023/03/29 12:38:25;;;;;;;19.80;11.00;;;13.80;99.90;;;;;;5024531;28;20413;-71
2023/03/29 12:41:09;;;;;;;15.15;11.35;;;13.80;99.90;;;;;;5007411;28;20467;-71
2023/03/29 12:43:40;;;;;;;15.73;10.65;;;13.90;99.90;;;;;;4988021;28;20106;-71
2023/03/29 12:46:13;;;;;;;14.98;11.13;;;13.90;99.90;;;;;;4982142;28;20194;-71
2023/03/29 12:48:41;;;;;;;16.30;10.98;;;13.80;99.90;;;;;;5005963;28;20049;-70
2023/03/29 12:51:12;;;;;;;18.20;10.73;;;13.90;99.90;;;;;;4996255;28;20057;-71
2023/03/29 12:53:42;;;;;;;14.65;10.68;;;13.90;99.90;;;;;;4997417;28;20045;-71
2023/03/29 12:56:12;;;;;;;14.25;10.75;;;13.90;99.90;;;;;;5002151;28;20059;-71
2023/03/29 12:58:38;;;;;;;14.02;10.13;;;13.90;99.90;;;;;;4981787;28;20049;-71
2023/03/29 13:01:22;;;;;;;15.25;11.35;;;13.90;99.90;;;;;;5001529;28;20515;-71
2023/03/29 13:04:10;;;;;;;16.77;11.02;;;13.90;99.90;;;;;;4998408;28;20045;-71
2023/03/29 13:06:48;;;;;;;13.75;10.98;;;13.90;99.90;;;;;;5006689;28;20037;-71
2023/03/29 13:09:23;;;;;;;14.77;10.43;;;13.90;99.90;;;;;;4988264;28;20045;-71
2023/03/29 13:11:54;;;;;;;14.20;9.98;;;13.80;99.90;;;;;;5001188;28;20124;-71